• Join FlightAware (Why Join?)
  • Login
  • US Flag 
10:03PM EDT


 

Airport Tracker/Info


-or-


 

Live Flight TrackerFlight Track Log ✈ RPA4946 ✈ 04-Nov-2013 ✈ KGJT - KDEN

Flight Track Log - Related Links

Times and Time Zones

All times are in EST time to prevent confusion due to time zone crossing. See the RPA4946 flight status page for this flight to view local times or setup timezone preferences in your user account.

Time Position Orientation Groundspeed Altitude Reporting Facility
EST Latitude Longitude Course Direction KTS MPH feet Rate Location/Type
09:58AM 39.0833 -108.5000 155° Southeast 190 219 7,400  Level Denver TRACON
09:59AM 39.0442 -108.4767 155° Southeast 189 217 9,200 2,400 Climbing Denver Center
10:00AM 38.9947 -108.4475 155° Southeast 198 228 11,400 2,040 Climbing Denver Center
10:01AM 38.9633 -108.3811 121° Southeast 225 259 13,500 1,980 Climbing Denver Center
10:02AM 38.9347 -108.3017 115° Southeast 229 264 15,500 1,800 Climbing Denver Center
10:03AM 38.9058 -108.2236 115° Southeast 241 277 17,200 1,560 Climbing Denver Center
10:04AM 38.8739 -108.1394 116° Southeast 249 287 18,700 1,320 Climbing Denver Center
10:05AM 38.8442 -108.0611 116° Southeast 254 292 20,000 1,260 Climbing Denver Center
10:06AM 38.8136 -107.9811 116° Southeast 260 299 21,300 1,260 Climbing Denver Center
10:07AM 38.7783 -107.8858 115° Southeast 265 305 22,600 780 Climbing Denver Center
10:08AM 38.7447 -107.8019 117° Southeast 273 314 23,000 180 Climbing Denver Center
10:09AM 38.7008 -107.6867 116° Southeast 318 366 23,000  Level Denver Center
10:10AM 38.6583 -107.5764 116° Southeast 354 407 23,000  Level Denver Center
10:11AM 38.6192 -107.4686 115° Southeast 367 422 23,000  Level Denver Center
10:12AM 38.5664 -107.3331 116° Southeast 365 420 23,000  Level Denver Center
10:13AM 38.5231 -107.2225 117° Southeast 364 419 23,000  Level Denver Center
10:14AM 38.4819 -107.1164 116° Southeast 363 418 23,000  Level Denver Center
10:15AM 38.4742 -106.9678 94° East 370 426 23,000  Level Denver Center
10:16AM 38.5161 -106.8456 66° East 376 433 23,000  Level Denver Center
10:17AM 38.5558 -106.7281 67° East 367 422 23,000  Level Denver Center
10:18AM 38.5936 -106.6078 68° East 366 421 23,000  Level Denver Center
10:19AM 38.6317 -106.4883 68° East 365 420 23,000  Level Denver Center
10:21AM 38.7100 -106.2450 68° East 366 421 23,000  Level Denver Center
10:22AM 38.7550 -106.1067 67° East 365 420 23,000  Level Denver Center
10:23AM 38.8058 -106.0017 58° Northeast 367 422 23,000 -60 Level Denver Center
10:24AM 38.8761 -105.8961 49° Northeast 355 409 22,900 -900 Descending Denver Center
10:25AM 38.9372 -105.8025 50° Northeast 355 409 21,200 -1,620 Descending Denver Center
10:26AM 38.9953 -105.7097 51° Northeast 350 403 19,600 -1,740 Descending Denver Center
10:27AM 39.0631 -105.6072 50° Northeast 339 390 17,700 -1,680 Descending Denver Center
10:28AM 39.1172 -105.5222 51° Northeast 328 377 16,200 -840 Descending Denver Center
10:29AM 39.1786 -105.4269 50° Northeast 325 374 16,000 -540 Descending Denver Center
10:30AM 39.2589 -105.3517 36° Northeast 332 382 15,100 -840 Descending Denver Center
10:31AM 39.3344 -105.2878 33° Northeast 325 374 14,300 -540 Descending Denver Center
10:32AM 39.4036 -105.2256 35° Northeast 305 351 14,000 -600 Descending Denver Center
10:33AM 39.4867 -105.1842 21° North 308 354 13,100 -540 Descending Denver Center
10:34AM 39.5653 -105.1686 North 288 331 13,000 -360 Descending Denver Center
10:36AM 39.6386 -105.1619 North 268 308 12,400 -840 Descending Denver Center
10:37AM 39.7181 -105.1558 North 265 305 11,300 -720 Descending Denver Center
10:38AM 39.7911 -105.1389 10° North 274 315 11,000 -780 Descending Denver Center
10:39AM 39.8292 -105.0522 60° Northeast 257 296 9,700 -1,200 Descending Denver Center
10:40AM 39.8422 -104.9783 77° East 217 250 8,600 -1,260 Descending Denver Center
10:41AM 39.8417 -104.9042 91° East 209 241 7,200 -840 Descending Denver Center
10:42AM 39.8417 -104.8319 90° East 184 212 6,900 -480 Descending Denver Center
10:43AM 39.8408 -104.7811 91° East 147 169 6,300 -780 Descending Denver Center
10:44AM 39.8411 -104.7294 90° East 135 155 5,400 -480 Descending Denver Center
10:45AM 39.8406 -104.6819 91° East 135 155 5,400  Level Denver Center
10:47AM 39.8500 -104.6667 339° North  Level FlightAware Approximate
10:54AM 39.8617 -104.6732 339° North  Level Estimated
10:55AM 39.8617 -104.6732 339° North  Level Estimated